Time;durP1;ratioP1;P1;durP2;ratioP2;P2;SDS_P1;SDS_P2;PMS_P1;PMS_P2;Temp;Humidity;BMP_temperature;BMP_pressure;BME280_temperature;BME280_humidity;BME280_pressure;Samples;Min_cycle;Max_cycle;Signal;HPM_P1;HPM_P2
2022/09/17 00:01:16;;;;;;;11.43;6.95;;;;;;;18.68;71.83;94106.38;5010364;28;20250;-69
2022/09/17 00:03:42;;;;;;;9.77;7.25;;;;;;;18.33;73.63;94097.34;5010261;28;20219;-69
2022/09/17 00:06:11;;;;;;;12.43;7.43;;;;;;;18.51;72.70;94103.47;5012875;28;20231;-69
2022/09/17 00:08:38;;;;;;;10.05;7.53;;;;;;;18.51;72.81;94089.34;5006304;28;20277;-69
2022/09/17 00:11:10;;;;;;;11.95;7.35;;;;;;;18.40;73.08;94093.56;5010935;28;20227;-69
2022/09/17 00:13:36;;;;;;;8.43;6.63;;;;;;;18.47;72.91;94086.34;5027081;28;20218;-68
2022/09/17 00:16:02;;;;;;;7.50;6.45;;;;;;;18.54;72.59;94078.25;5022125;28;20230;-68
2022/09/17 00:18:28;;;;;;;9.48;6.95;;;;;;;18.55;72.87;94081.72;5010936;28;20324;-69
2022/09/17 00:20:53;;;;;;;9.98;7.22;;;;;;;18.53;72.91;94068.66;5015515;28;20484;-68
2022/09/17 00:23:19;;;;;;;10.15;6.57;;;;;;;18.52;73.08;94062.53;5011431;28;20195;-69
2022/09/17 00:25:45;;;;;;;7.80;6.97;;;;;;;18.65;72.37;94060.72;5008203;28;20261;-69
2022/09/17 00:28:12;;;;;;;7.57;6.78;;;;;;;18.75;72.04;94065.53;5010746;28;20223;-69
2022/09/17 00:30:42;;;;;;;8.82;6.20;;;;;;;18.62;72.44;94067.31;5015452;28;20243;-69
2022/09/17 00:33:11;;;;;;;9.85;6.68;;;;;;;18.70;71.90;94066.19;5012586;28;20249;-69
2022/09/17 00:35:36;;;;;;;8.52;6.90;;;;;;;18.64;72.33;94059.09;5010358;28;20203;-68
2022/09/17 00:38:02;;;;;;;10.63;6.55;;;;;;;18.50;73.04;94074.44;5006422;28;20230;-67
2022/09/17 00:40:28;;;;;;;7.82;6.20;;;;;;;18.54;72.65;94080.91;5012002;28;20277;-67
2022/09/17 00:42:53;;;;;;;11.55;6.90;;;;;;;18.60;72.15;94084.53;5009718;28;20223;-67
2022/09/17 00:45:19;;;;;;;7.68;6.07;;;;;;;18.65;71.98;94090.00;5012981;28;20305;-67
2022/09/17 00:47:49;;;;;;;8.57;6.20;;;;;;;18.55;72.33;94092.38;5002938;28;20214;-68
2022/09/17 00:50:43;;;;;;;9.35;6.43;;;;;;;18.51;72.80;94098.16;5010791;28;20207;-67
2022/09/17 00:53:16;;;;;;;7.15;6.45;;;;;;;18.42;72.49;94082.72;5004374;28;20238;-67
2022/09/17 00:55:47;;;;;;;8.00;6.22;;;;;;;18.34;72.91;94081.16;5004753;28;20242;-68
2022/09/17 00:58:16;;;;;;;10.20;6.50;;;;;;;18.27;73.09;94083.88;5006198;28;20265;-67
2022/09/17 01:00:41;;;;;;;12.70;6.60;;;;;;;18.33;73.04;94094.69;5009518;28;20269;-68
2022/09/17 01:03:07;;;;;;;7.90;6.95;;;;;;;18.38;72.97;94108.94;5012062;28;20227;-67
2022/09/17 01:05:36;;;;;;;8.75;6.45;;;;;;;18.43;72.80;94127.72;5006491;28;20203;-67
2022/09/17 01:08:19;;;;;;;11.13;6.32;;;;;;;18.45;72.50;94108.88;5009585;28;20318;-67
2022/09/17 01:11:09;;;;;;;8.88;6.90;;;;;;;18.30;73.16;94086.09;5010245;28;20226;-68
2022/09/17 01:13:59;;;;;;;12.10;6.68;;;;;;;18.23;73.40;94098.69;5003209;28;20230;-67
2022/09/17 01:16:34;;;;;;;9.95;6.50;;;;;;;18.25;73.68;94066.53;5005651;28;20234;-67
2022/09/17 01:19:28;;;;;;;11.48;6.50;;;;;;;18.33;73.39;94076.06;5009293;28;20229;-68
2022/09/17 01:22:02;;;;;;;7.78;6.28;;;;;;;18.32;73.23;94063.78;5002674;28;20903;-68
2022/09/17 01:24:44;;;;;;;7.30;6.57;;;;;;;18.40;72.90;94079.47;5004751;28;20223;-67
2022/09/17 01:27:19;;;;;;;8.00;6.32;;;;;;;18.27;72.86;94051.16;5008311;28;20230;-67
2022/09/17 01:30:21;;;;;;;9.25;6.85;;;;;;;18.20;73.71;94074.34;5009504;28;20206;-68
2022/09/17 01:33:12;;;;;;;9.32;6.53;;;;;;;18.33;73.10;94078.72;5003632;28;21012;-67
2022/09/17 01:35:58;;;;;;;8.70;6.15;;;;;;;18.35;73.03;94072.13;5020716;28;20207;-67
2022/09/17 01:38:30;;;;;;;7.88;6.35;;;;;;;18.29;73.46;94089.81;5007840;28;20326;-67
2022/09/17 01:41:29;;;;;;;11.10;6.35;;;;;;;18.37;73.02;94069.28;5003083;28;20254;-67
2022/09/17 01:44:01;;;;;;;8.90;6.10;;;;;;;18.17;74.12;94074.81;4973483;28;20266;-67
2022/09/17 01:46:35;;;;;;;10.30;6.75;;;;;;;18.25;73.95;94053.22;4984943;28;20255;-67
2022/09/17 01:49:04;;;;;;;8.15;5.55;;;;;;;18.36;73.35;94052.47;4989838;28;20756;-68
2022/09/17 01:51:37;;;;;;;11.07;6.10;;;;;;;18.43;73.00;94026.59;4971639;28;20232;-67
2022/09/17 01:54:26;;;;;;;10.52;6.15;;;;;;;18.36;73.12;94012.53;4986336;28;20215;-67
2022/09/17 01:57:02;;;;;;;9.90;6.57;;;;;;;18.37;73.06;94016.84;4985255;28;20211;-67
2022/09/17 01:59:46;;;;;;;6.13;5.53;;;;;;;18.32;73.42;94051.28;4966064;28;20230;-67
2022/09/17 02:02:38;;;;;;;11.57;6.22;;;;;;;18.58;72.85;94075.94;4983673;28;20228;-67
2022/09/17 02:05:09;;;;;;;7.63;5.63;;;;;;;18.32;73.25;94056.63;4983717;28;20229;-67
2022/09/17 02:07:42;;;;;;;8.60;6.15;;;;;;;18.09;74.54;94046.63;4985035;28;20227;-67
2022/09/17 02:10:13;;;;;;;7.30;6.00;;;;;;;17.91;75.83;94036.81;4973851;28;20277;-68
2022/09/17 02:12:44;;;;;;;8.55;5.50;;;;;;;17.99;75.55;94023.22;4968364;28;20304;-68
2022/09/17 02:15:20;;;;;;;9.68;5.50;;;;;;;18.08;75.19;94029.06;4989516;28;20362;-68
2022/09/17 02:17:51;;;;;;;8.25;5.43;;;;;;;18.18;74.51;93992.13;4986211;28;20761;-68
2022/09/17 02:20:19;;;;;;;9.05;5.05;;;;;;;18.12;74.51;93946.94;4978724;28;20206;-68
2022/09/17 02:22:55;;;;;;;8.32;5.63;;;;;;;18.20;74.44;93957.28;5011410;28;20222;-68
2022/09/17 02:25:27;;;;;;;9.32;5.32;;;;;;;18.26;73.97;93965.19;5001806;28;20215;-68
2022/09/17 02:28:18;;;;;;;7.82;5.93;;;;;;;18.33;73.41;93925.16;5010036;28;20237;-68
2022/09/17 02:30:44;;;;;;;5.75;5.03;;;;;;;18.01;74.56;93912.09;5002272;28;20263;-68
2022/09/17 02:33:13;;;;;;;8.07;4.95;;;;;;;18.04;74.92;93918.81;5006132;28;20266;-68
2022/09/17 02:35:39;;;;;;;11.02;4.70;;;;;;;18.12;74.02;93917.69;5008208;28;20214;-68
2022/09/17 02:38:04;;;;;;;9.20;5.00;;;;;;;18.09;73.77;93934.91;5002553;28;20310;-68
2022/09/17 02:40:36;;;;;;;8.30;4.82;;;;;;;18.13;73.68;93954.72;5006534;28;20270;-68
2022/09/17 02:43:14;;;;;;;7.10;4.63;;;;;;;18.16;73.33;93956.13;5003935;28;20337;-68
2022/09/17 02:45:56;;;;;;;7.07;4.35;;;;;;;18.17;72.96;93953.22;5008121;28;20222;-68
2022/09/17 02:49:00;;;;;;;7.25;4.20;;;;;;;18.17;73.39;93973.69;5000674;28;20234;-68
2022/09/17 02:51:58;;;;;;;8.07;4.35;;;;;;;18.09;73.52;93942.88;5004927;28;20227;-68
2022/09/17 02:54:30;;;;;;;5.10;3.53;;;;;;;18.08;73.26;93966.03;5009006;28;20218;-68
2022/09/17 02:57:05;;;;;;;7.88;4.40;;;;;;;18.26;72.23;93983.81;5008228;28;20210;-68
2022/09/17 02:59:41;;;;;;;7.07;4.68;;;;;;;18.10;72.98;93962.34;5009221;28;20393;-68
2022/09/17 03:02:06;;;;;;;4.57;4.00;;;;;;;18.06;73.22;93946.00;5009107;28;20222;-68
2022/09/17 03:04:33;;;;;;;5.50;4.10;;;;;;;18.10;73.03;93935.75;5011660;28;20222;-68
2022/09/17 03:06:59;;;;;;;11.30;4.82;;;;;;;18.13;72.53;93941.41;5007455;28;20223;-68
2022/09/17 03:09:25;;;;;;;7.38;4.45;;;;;;;18.07;72.88;93929.84;5006431;28;20233;-68
2022/09/17 03:11:50;;;;;;;10.15;4.32;;;;;;;18.12;73.03;93915.03;5007893;28;20198;-68
2022/09/17 03:14:16;;;;;;;7.97;4.40;;;;;;;18.05;73.32;93923.09;5019824;28;20202;-68
2022/09/17 03:16:41;;;;;;;6.68;4.80;;;;;;;18.07;73.67;93923.72;5006867;28;20223;-68
2022/09/17 03:19:07;;;;;;;8.32;4.53;;;;;;;18.05;73.44;93929.22;5004331;28;20233;-68
2022/09/17 03:21:32;;;;;;;9.38;4.50;;;;;;;18.07;73.55;93929.03;5008615;28;20308;-68
2022/09/17 03:23:59;;;;;;;6.15;4.45;;;;;;;18.10;73.09;93939.22;5008694;28;20218;-68
2022/09/17 03:26:25;;;;;;;7.63;4.53;;;;;;;18.04;73.40;93918.81;5007824;28;20354;-68
2022/09/17 03:28:50;;;;;;;6.82;4.28;;;;;;;18.01;73.55;93925.38;5005060;28;20716;-68
2022/09/17 03:31:16;;;;;;;8.00;4.57;;;;;;;18.11;73.12;93948.00;5008069;28;20253;-68
2022/09/17 03:33:41;;;;;;;10.00;5.40;;;;;;;18.06;72.87;93928.19;5007554;28;20223;-68
2022/09/17 03:36:07;;;;;;;7.30;4.80;;;;;;;17.89;73.82;93919.22;5005282;28;20597;-68
2022/09/17 03:38:33;;;;;;;10.65;5.32;;;;;;;18.00;73.53;93922.97;5004467;28;20287;-68
2022/09/17 03:41:05;;;;;;;11.65;4.97;;;;;;;18.01;73.18;93920.06;5013460;28;20321;-68
2022/09/17 03:43:30;;;;;;;6.95;4.63;;;;;;;17.94;73.18;93905.25;4991049;28;20269;-68
2022/09/17 03:45:56;;;;;;;5.28;3.85;;;;;;;17.97;73.36;93920.75;5007512;28;20234;-68
2022/09/17 03:48:21;;;;;;;6.00;4.10;;;;;;;18.06;72.51;93893.59;5008109;28;20232;-68
2022/09/17 03:50:47;;;;;;;4.95;3.40;;;;;;;18.05;72.22;93886.69;5009477;28;20234;-68
2022/09/17 03:53:13;;;;;;;5.68;3.97;;;;;;;18.02;72.56;93875.69;5009669;28;20233;-68
2022/09/17 03:55:39;;;;;;;5.50;4.03;;;;;;;17.94;73.20;93906.06;5007236;28;20318;-68
2022/09/17 03:58:04;;;;;;;8.30;4.40;;;;;;;18.06;73.21;93882.97;5006497;28;20281;-68
2022/09/17 04:00:31;;;;;;;8.02;4.28;;;;;;;18.07;73.03;93894.44;5009059;28;20276;-68
2022/09/17 04:02:56;;;;;;;6.97;4.32;;;;;;;18.11;72.77;93916.06;5005452;28;20298;-68
2022/09/17 04:05:22;;;;;;;7.97;3.83;;;;;;;18.13;72.59;93903.38;5007302;28;20235;-68
2022/09/17 04:07:48;;;;;;;6.32;4.15;;;;;;;18.06;72.52;93922.06;5009624;28;20257;-68
2022/09/17 04:10:13;;;;;;;7.20;4.05;;;;;;;18.08;72.20;93917.34;5008331;28;20214;-68
2022/09/17 04:12:39;;;;;;;7.10;4.13;;;;;;;18.14;72.41;93915.63;5004364;28;20238;-68
2022/09/17 04:15:05;;;;;;;6.97;3.90;;;;;;;18.19;72.43;93918.41;5007876;28;20586;-67
2022/09/17 04:17:31;;;;;;;5.68;4.30;;;;;;;18.12;73.11;93949.59;5007770;28;20241;-67
2022/09/17 04:19:57;;;;;;;8.52;3.80;;;;;;;18.29;72.13;93956.75;5002930;28;20245;-67
2022/09/17 04:22:22;;;;;;;5.72;3.78;;;;;;;18.29;71.79;93972.72;5007602;28;20916;-67
2022/09/17 04:24:47;;;;;;;8.13;3.83;;;;;;;18.26;72.12;93978.50;5011245;28;20222;-66
2022/09/17 04:27:13;;;;;;;9.55;3.60;;;;;;;18.36;72.02;93998.44;5011131;28;20708;-67
2022/09/17 04:29:38;;;;;;;5.65;3.80;;;;;;;18.29;72.66;94007.31;5012099;28;20243;-67
2022/09/17 04:32:04;;;;;;;6.18;4.07;;;;;;;18.32;72.91;94008.72;5010076;28;20262;-66
2022/09/17 04:34:30;;;;;;;9.32;4.25;;;;;;;18.23;73.63;93994.09;5013413;28;20289;-66
2022/09/17 04:36:56;;;;;;;5.70;4.60;;;;;;;18.27;74.27;94028.00;5010200;28;20226;-66
2022/09/17 04:39:21;;;;;;;8.32;4.57;;;;;;;18.38;73.03;94018.47;5013639;28;20231;-66
2022/09/17 04:41:47;;;;;;;7.90;5.50;;;;;;;18.26;73.15;94033.56;5004933;28;20203;-66
2022/09/17 04:44:12;;;;;;;7.13;4.88;;;;;;;18.15;73.98;94045.78;5013643;28;20221;-66
2022/09/17 04:46:38;;;;;;;6.53;4.82;;;;;;;18.27;73.72;94051.16;5010624;28;20227;-67
2022/09/17 04:49:03;;;;;;;8.73;5.55;;;;;;;18.21;74.86;94070.69;5007196;28;20234;-67
2022/09/17 04:51:28;;;;;;;11.75;5.63;;;;;;;18.27;74.23;94075.09;5012589;28;20689;-67
2022/09/17 04:53:54;;;;;;;12.23;6.13;;;;;;;18.32;74.18;94069.13;5010500;28;20666;-67
2022/09/17 04:56:19;;;;;;;7.60;5.50;;;;;;;18.30;73.96;94083.44;5011468;28;20203;-67
2022/09/17 04:58:45;;;;;;;11.50;6.78;;;;;;;18.25;74.77;94077.16;5010963;28;20277;-67
2022/09/17 05:01:12;;;;;;;7.97;6.05;;;;;;;18.23;75.06;94081.88;5007954;28;20223;-67
2022/09/17 05:03:38;;;;;;;7.97;5.40;;;;;;;18.40;73.67;94076.81;5005001;28;20223;-67
2022/09/17 05:06:04;;;;;;;10.07;4.95;;;;;;;18.47;73.06;94075.69;5008789;28;20232;-67
2022/09/17 05:08:29;;;;;;;10.02;4.80;;;;;;;18.45;73.18;94072.44;5006342;28;20293;-67
2022/09/17 05:10:55;;;;;;;10.35;4.57;;;;;;;18.54;72.78;94070.28;5005985;28;20230;-67
2022/09/17 05:13:20;;;;;;;7.30;4.22;;;;;;;18.52;73.51;94070.50;5006057;28;20215;-68
2022/09/17 05:15:46;;;;;;;10.75;5.03;;;;;;;18.46;75.56;94066.06;5024979;28;20223;-67
2022/09/17 05:18:12;;;;;;;7.32;5.32;;;;;;;18.43;76.64;94060.38;5009330;28;20277;-67
2022/09/17 05:20:37;;;;;;;11.60;6.38;;;;;;;18.45;76.75;94060.97;5011281;28;20203;-67
2022/09/17 05:23:03;;;;;;;7.45;6.22;;;;;;;18.38;75.80;94045.06;5003580;28;20265;-67
2022/09/17 05:25:29;;;;;;;9.38;6.15;;;;;;;18.28;77.54;94023.50;5010478;28;20608;-67
2022/09/17 05:27:55;;;;;;;11.07;6.97;;;;;;;18.36;78.00;94025.84;5009498;28;20223;-68
2022/09/17 05:30:21;;;;;;;8.38;5.95;;;;;;;18.34;77.50;94017.31;5008799;28;20222;-68
2022/09/17 05:32:48;;;;;;;10.88;6.95;;;;;;;18.39;78.04;94009.47;5006794;28;20264;-68
2022/09/17 05:35:13;;;;;;;7.85;6.30;;;;;;;18.48;77.06;94026.72;5012678;28;20198;-69
2022/09/17 05:37:38;;;;;;;10.52;5.32;;;;;;;18.48;76.74;94024.06;5005121;28;20227;-68
2022/09/17 05:40:06;;;;;;;8.77;5.88;;;;;;;18.52;77.18;94045.72;5012883;28;20233;-69
2022/09/17 05:42:32;;;;;;;10.02;5.32;;;;;;;18.49;76.94;94036.31;4994236;28;20219;-69
2022/09/17 05:44:57;;;;;;;8.10;4.65;;;;;;;18.70;76.49;94042.22;5010656;28;20221;-68
2022/09/17 05:47:23;;;;;;;9.25;5.05;;;;;;;18.83;75.15;94062.56;5010246;28;20203;-69
2022/09/17 05:49:48;;;;;;;10.00;5.40;;;;;;;18.85;74.37;94060.50;5010480;28;20554;-69
2022/09/17 05:52:15;;;;;;;8.60;4.50;;;;;;;18.80;75.02;94065.69;5007286;28;20223;-68
2022/09/17 05:54:40;;;;;;;9.57;5.75;;;;;;;18.83;75.27;94065.22;5009795;28;20309;-67
2022/09/17 05:57:06;;;;;;;11.23;5.85;;;;;;;18.73;76.20;94057.75;5009793;28;20337;-68
2022/09/17 05:59:32;;;;;;;9.27;5.85;;;;;;;18.61;76.56;94041.72;5012368;28;20205;-68
2022/09/17 06:01:57;;;;;;;11.07;6.25;;;;;;;18.78;76.69;94054.44;5008812;28;20229;-68
2022/09/17 06:04:23;;;;;;;10.23;6.88;;;;;;;18.90;76.16;94047.31;4993143;28;20240;-68
2022/09/17 06:06:48;;;;;;;9.65;6.40;;;;;;;18.93;75.38;94049.53;5008542;28;20222;-68
2022/09/17 06:09:14;;;;;;;12.35;7.18;;;;;;;18.88;76.01;94049.38;5007875;28;20232;-68
2022/09/17 06:11:39;;;;;;;10.70;6.57;;;;;;;18.91;75.58;94046.25;5008452;28;20683;-67
2022/09/17 06:14:04;;;;;;;10.18;7.15;;;;;;;18.88;75.30;94044.06;5010926;28;20317;-69
2022/09/17 06:16:30;;;;;;;12.45;7.20;;;;;;;18.93;75.47;94066.31;5008409;28;20697;-67
2022/09/17 06:18:55;;;;;;;9.52;7.20;;;;;;;18.93;75.71;94068.97;5008416;28;20223;-67
2022/09/17 06:21:21;;;;;;;9.95;6.57;;;;;;;18.93;75.18;94082.28;5007655;28;20617;-66
2022/09/17 06:23:48;;;;;;;22.25;11.32;;;;;;;18.98;74.66;94102.09;5007880;28;20211;-67
2022/09/17 06:26:14;;;;;;;12.90;9.23;;;;;;;18.77;76.70;94117.53;5007659;28;20231;-66
2022/09/17 06:28:39;;;;;;;12.73;9.32;;;;;;;18.75;77.23;94124.94;5009026;28;20707;-66
2022/09/17 06:31:07;;;;;;;12.52;8.93;;;;;;;18.70;77.72;94130.09;5008487;28;20239;-67
2022/09/17 06:33:33;;;;;;;11.00;7.80;;;;;;;18.71;78.06;94135.19;5005347;28;20296;-68
2022/09/17 06:36:00;;;;;;;13.38;8.75;;;;;;;18.66;78.04;94142.25;5014816;28;20289;-68
2022/09/17 06:38:27;;;;;;;12.50;7.18;;;;;;;18.52;77.70;94154.88;5009827;28;20234;-68
2022/09/17 06:40:52;;;;;;;9.68;7.10;;;;;;;18.58;76.87;94147.84;5007640;28;20273;-68
2022/09/17 06:43:18;;;;;;;15.13;10.20;;;;;;;18.48;76.82;94151.03;5006431;28;20223;-68
2022/09/17 06:45:54;;;;;;;12.32;9.45;;;;;;;18.51;77.02;94131.94;5009403;28;20227;-68
2022/09/17 06:48:19;;;;;;;10.43;7.00;;;;;;;18.54;77.97;94114.72;5008204;28;20227;-68
2022/09/17 06:50:45;;;;;;;11.90;5.78;;;;;;;18.64;78.21;94101.69;5008056;28;20211;-68
2022/09/17 06:53:10;;;;;;;7.20;5.88;;;;;;;18.71;78.20;94099.75;5010096;28;20262;-68
2022/09/17 06:55:36;;;;;;;10.05;5.95;;;;;;;18.80;77.72;94105.63;5006252;28;20214;-68
2022/09/17 06:58:01;;;;;;;10.32;5.78;;;;;;;18.92;77.31;94104.66;5008354;28;20238;-68
2022/09/17 07:00:26;;;;;;;19.77;7.03;;;;;;;19.06;75.97;94099.13;5011533;28;20367;-68
2022/09/17 07:02:59;;;;;;;9.82;6.05;;;;;;;19.20;75.07;94107.75;5006572;28;20199;-68
2022/09/17 07:05:26;;;;;;;10.27;6.13;;;;;;;19.34;74.36;94096.66;5006279;28;20211;-69
2022/09/17 07:07:52;;;;;;;9.70;5.90;;;;;;;19.44;73.46;94074.78;5006967;28;20261;-68
2022/09/17 07:10:17;;;;;;;11.55;6.05;;;;;;;19.62;72.86;94057.88;5009682;28;20222;-68
2022/09/17 07:12:43;;;;;;;11.82;5.78;;;;;;;19.70;72.39;94046.91;5008644;28;20234;-68
2022/09/17 07:15:14;;;;;;;10.00;5.55;;;;;;;19.94;72.08;94052.22;5009298;28;20268;-68
2022/09/17 07:17:41;;;;;;;9.82;5.53;;;;;;;20.06;71.19;94023.66;5007745;28;20233;-68
2022/09/17 07:20:07;;;;;;;9.93;5.70;;;;;;;20.13;71.11;94031.53;5001424;28;20224;-67
2022/09/17 07:22:33;;;;;;;12.20;5.97;;;;;;;20.11;71.21;94018.44;5009590;28;20233;-67
2022/09/17 07:24:59;;;;;;;11.25;5.25;;;;;;;20.33;70.59;94002.59;5007747;28;20452;-67
2022/09/17 07:27:27;;;;;;;6.75;5.43;;;;;;;20.68;69.08;94009.69;5007072;28;20298;-67
2022/09/17 07:29:53;;;;;;;10.13;5.30;;;;;;;20.58;68.97;94020.19;5007893;28;20718;-67
2022/09/17 07:32:18;;;;;;;7.45;4.60;;;;;;;20.58;69.46;94031.72;5007784;28;20312;-67
2022/09/17 07:34:44;;;;;;;13.27;6.07;;;;;;;20.64;69.61;94030.75;5004951;28;20223;-67
2022/09/17 07:37:09;;;;;;;9.00;6.10;;;;;;;20.60;70.01;94013.56;5008718;28;20351;-67
2022/09/17 07:39:35;;;;;;;10.18;5.70;;;;;;;20.59;69.58;94024.50;5009823;28;20222;-67
2022/09/17 07:42:02;;;;;;;9.48;5.38;;;;;;;20.65;69.83;94027.03;5008112;28;20211;-67
2022/09/17 07:44:28;;;;;;;9.45;4.72;;;;;;;20.62;70.00;94016.00;5005732;28;20302;-67
2022/09/17 07:46:53;;;;;;;10.45;5.28;;;;;;;20.66;68.90;94017.97;5002260;28;20350;-67
2022/09/17 07:49:19;;;;;;;7.07;4.78;;;;;;;20.84;68.49;94016.94;5005334;28;20258;-68
2022/09/17 07:51:44;;;;;;;7.60;4.93;;;;;;;20.89;68.99;94016.22;5006606;28;20229;-70
2022/09/17 07:54:09;;;;;;;8.40;4.53;;;;;;;20.99;67.79;94020.97;5006892;28;20263;-70
2022/09/17 07:56:35;;;;;;;9.95;5.03;;;;;;;21.13;67.33;94015.06;5008655;28;20509;-69
2022/09/17 07:59:02;;;;;;;9.48;5.03;;;;;;;21.15;67.13;94012.97;5009128;28;20219;-70
2022/09/17 08:01:28;;;;;;;9.15;5.05;;;;;;;21.17;67.02;94011.88;5010083;28;20218;-69
2022/09/17 08:03:53;;;;;;;12.40;5.68;;;;;;;21.20;67.50;94001.53;5007827;28;20234;-69
2022/09/17 08:06:22;;;;;;;8.20;4.60;;;;;;;21.26;67.51;94010.47;5013106;28;20816;-69
2022/09/17 08:08:48;;;;;;;11.00;5.57;;;;;;;21.53;66.86;94016.00;5009648;28;20299;-69
2022/09/17 08:11:16;;;;;;;9.70;4.75;;;;;;;21.71;65.28;93999.69;5019266;28;20213;-69
2022/09/17 08:13:43;;;;;;;7.22;3.97;;;;;;;21.69;64.33;93996.44;5008793;28;20535;-69
2022/09/17 08:16:14;;;;;;;8.32;4.00;;;;;;;21.82;63.97;94002.50;5000805;28;20421;-69
2022/09/17 08:18:40;;;;;;;7.10;3.72;;;;;;;21.84;63.35;93978.97;5010579;28;20227;-69
2022/09/17 08:21:08;;;;;;;8.48;3.95;;;;;;;21.92;63.29;93974.03;5009166;28;20310;-69
2022/09/17 08:23:35;;;;;;;7.50;3.58;;;;;;;22.05;63.57;93988.09;5010999;28;20214;-69
2022/09/17 08:26:01;;;;;;;7.15;3.65;;;;;;;22.22;62.41;93992.38;5003972;28;20230;-69
2022/09/17 08:28:29;;;;;;;5.78;3.47;;;;;;;22.38;61.17;93992.56;5011063;28;20226;-69
2022/09/17 08:31:08;;;;;;;10.95;3.13;;;;;;;22.14;61.69;93978.59;5009341;28;20238;-69
2022/09/17 08:33:36;;;;;;;10.32;3.63;;;;;;;22.34;61.40;93978.03;5006134;28;20281;-69
2022/09/17 08:36:03;;;;;;;5.82;3.45;;;;;;;22.49;61.10;93993.50;5023169;28;20390;-69
2022/09/17 08:38:31;;;;;;;6.90;3.40;;;;;;;22.62;60.66;93988.53;5013037;28;20261;-70
2022/09/17 08:41:09;;;;;;;8.68;3.38;;;;;;;22.76;59.53;93993.50;5010334;28;21007;-68
2022/09/17 08:44:10;;;;;;;8.50;3.55;;;;;;;22.74;59.67;93991.06;5005714;28;20256;-68
2022/09/17 08:46:41;;;;;;;9.95;3.47;;;;;;;22.83;59.24;93992.25;5007214;28;20284;-67
2022/09/17 08:49:20;;;;;;;7.43;2.75;;;;;;;22.57;60.46;93974.28;5010848;28;20310;-67
2022/09/17 08:52:02;;;;;;;6.22;2.83;;;;;;;22.51;59.15;93978.78;5004389;28;20229;-67
2022/09/17 08:54:41;;;;;;;7.15;3.42;;;;;;;22.50;58.18;93971.00;5008939;28;20233;-67
2022/09/17 08:57:12;;;;;;;5.72;2.75;;;;;;;22.37;59.00;93978.38;5010079;28;20294;-68
2022/09/17 08:59:56;;;;;;;6.25;3.00;;;;;;;22.15;59.86;93998.94;5005149;28;20856;-68
2022/09/17 09:02:36;;;;;;;9.00;3.15;;;;;;;21.86;60.11;93982.22;5010025;28;20616;-68
2022/09/17 09:05:14;;;;;;;6.70;3.17;;;;;;;21.62;61.80;93949.50;5008247;28;20226;-68
2022/09/17 09:07:49;;;;;;;8.68;3.58;;;;;;;21.50;62.54;93987.88;5025228;28;20226;-68
2022/09/17 09:10:23;;;;;;;4.13;2.78;;;;;;;21.49;63.38;93985.44;5009672;28;20245;-67
2022/09/17 09:12:51;;;;;;;9.05;3.10;;;;;;;21.43;63.16;93986.41;5002010;28;20226;-68
2022/09/17 09:15:37;;;;;;;8.63;3.00;;;;;;;21.29;64.58;94001.94;5009628;28;20247;-67
2022/09/17 09:18:20;;;;;;;6.50;2.78;;;;;;;21.32;65.07;94004.13;5009026;28;20289;-69
2022/09/17 09:20:46;;;;;;;8.07;3.20;;;;;;;21.26;64.00;93991.75;5005133;28;20215;-65
2022/09/17 09:23:19;;;;;;;5.13;2.97;;;;;;;21.19;66.72;94010.59;5013073;28;20222;-65
2022/09/17 09:26:18;;;;;;;7.85;3.78;;;;;;;21.02;67.43;94017.81;5009693;28;20298;-64
2022/09/17 09:29:23;;;;;;;5.93;3.60;;;;;;;21.15;69.04;94030.88;5003943;28;20230;-65
2022/09/17 09:31:49;;;;;;;5.22;3.05;;;;;;;21.14;68.37;94019.38;4941360;28;20241;-68
2022/09/17 09:34:15;;;;;;;5.68;3.33;;;;;;;20.98;69.27;94035.34;4953860;28;20247;-69
2022/09/17 09:36:40;;;;;;;8.05;3.50;;;;;;;21.11;67.96;94045.75;4954262;28;20237;-69
2022/09/17 09:39:22;;;;;;;7.97;3.92;;;;;;;21.07;68.08;94049.97;4951577;28;20229;-69
2022/09/17 09:41:58;;;;;;;6.32;3.72;;;;;;;20.94;67.95;94056.41;4951472;28;20304;-69
2022/09/17 09:44:24;;;;;;;8.02;4.47;;;;;;;20.81;70.78;94051.34;4937082;28;20307;-69
2022/09/17 09:47:09;;;;;;;8.80;5.18;;;;;;;20.70;72.81;94069.84;4935666;28;20268;-69
2022/09/17 09:49:59;;;;;;;9.05;4.85;;;;;;;20.67;71.82;94056.97;4932831;29;20246;-68
2022/09/17 09:52:43;;;;;;;12.55;5.38;;;;;;;20.67;73.33;94067.66;4952496;28;20291;-69
2022/09/17 09:55:26;;;;;;;10.15;4.68;;;;;;;20.63;73.97;94074.50;4935295;29;20287;-69
2022/09/17 09:57:57;;;;;;;9.60;4.75;;;;;;;20.57;74.35;94082.69;4937645;29;20228;-69
2022/09/17 10:00:26;;;;;;;10.25;5.13;;;;;;;20.51;73.73;94079.06;4933899;28;20228;-69
2022/09/17 10:03:26;;;;;;;7.07;5.03;;;;;;;20.48;76.33;94074.19;4955206;28;20213;-68
2022/09/17 10:06:03;;;;;;;11.68;5.88;;;;;;;20.49;77.06;94046.44;4935556;28;20220;-65
2022/09/17 10:08:31;;;;;;;10.48;5.07;;;;;;;20.36;76.69;94034.16;4973354;28;20257;-67
2022/09/17 10:11:01;;;;;;;8.52;5.38;;;;;;;20.42;76.18;93989.69;4974262;28;20371;-67
2022/09/17 10:13:30;;;;;;;9.10;4.75;;;;;;;20.26;77.43;93993.91;4975040;28;20231;-67
2022/09/17 10:15:56;;;;;;;10.75;5.97;;;;;;;20.25;77.86;93984.28;4980782;28;20227;-67
2022/09/17 10:18:25;;;;;;;10.07;6.00;;;;;;;20.23;77.74;93981.03;4969862;28;20271;-64
2022/09/17 10:20:52;;;;;;;9.70;5.72;;;;;;;20.13;78.36;93968.31;4971983;28;20219;-65
2022/09/17 10:23:18;;;;;;;8.32;5.90;;;;;;;20.12;78.46;93958.66;4973017;28;20300;-65
2022/09/17 10:25:44;;;;;;;8.27;6.15;;;;;;;20.11;78.04;93948.25;4970347;28;20221;-64
2022/09/17 10:28:42;;;;;;;7.72;5.78;;;;;;;20.15;77.09;93942.19;4973938;28;20243;-64
2022/09/17 10:31:11;;;;;;;7.30;5.40;;;;;;;20.19;76.24;93921.19;4987831;28;20234;-69
2022/09/17 10:33:52;;;;;;;8.52;5.68;;;;;;;20.18;75.47;93931.06;4998567;28;20459;-69
2022/09/17 10:36:44;;;;;;;7.80;5.15;;;;;;;20.28;75.57;93946.44;5007118;28;20878;-65
2022/09/17 10:39:19;;;;;;;8.20;5.90;;;;;;;20.20;75.29;93944.94;5007393;28;20560;-70
2022/09/17 10:42:11;;;;;;;7.28;6.03;;;;;;;20.26;75.82;93952.03;5005339;28;20206;-70
2022/09/17 10:44:38;;;;;;;9.90;6.32;;;;;;;20.28;75.08;93925.09;5006608;28;20226;-69
2022/09/17 10:47:24;;;;;;;9.05;5.38;;;;;;;20.44;75.42;93921.63;5013041;28;20210;-69
2022/09/17 10:49:53;;;;;;;9.73;5.40;;;;;;;20.61;74.92;93918.22;5003994;28;21043;-69
2022/09/17 10:52:30;;;;;;;5.40;4.80;;;;;;;20.47;74.60;93894.50;5004276;28;20301;-69
2022/09/17 10:55:21;;;;;;;6.35;4.53;;;;;;;20.62;74.73;93890.47;5005259;28;20226;-69
2022/09/17 10:58:08;;;;;;;7.75;3.90;;;;;;;20.89;73.71;93912.03;5006465;28;20226;-69
2022/09/17 11:00:55;;;;;;;5.10;3.78;;;;;;;20.87;71.59;93858.81;5003082;28;20222;-69
2022/09/17 11:03:58;;;;;;;6.10;3.35;;;;;;;20.65;71.96;93884.66;5001647;28;20246;-69
2022/09/17 11:07:01;;;;;;;6.78;3.10;;;;;;;20.95;71.40;93896.88;5005152;28;20233;-69
2022/09/17 11:09:54;;;;;;;7.53;3.03;;;;;;;20.56;71.40;93910.94;5001743;28;20226;-69
2022/09/17 11:12:55;;;;;;;3.58;2.88;;;;;;;20.66;72.31;93929.00;5010859;28;20223;-68
2022/09/17 11:15:39;;;;;;;5.80;2.95;;;;;;;20.92;69.93;93909.66;4949921;28;20307;-69
2022/09/17 11:18:16;;;;;;;3.90;2.80;;;;;;;21.29;70.54;93921.75;4949051;28;20215;-69
2022/09/17 11:21:13;;;;;;;6.18;2.90;;;;;;;21.68;68.88;93905.72;4947474;28;20256;-67
2022/09/17 11:23:42;;;;;;;4.72;3.13;;;;;;;21.68;68.56;93913.75;4895459;29;20265;-67
2022/09/17 11:26:19;;;;;;;6.10;3.03;;;;;;;21.33;70.03;93923.69;4910198;29;20857;-69
2022/09/17 11:29:01;;;;;;;4.47;3.28;;;;;;;21.01;71.24;93934.16;4910160;29;20256;-67
2022/09/17 11:31:54;;;;;;;5.10;3.22;;;;;;;20.98;72.08;93933.81;4896119;29;20234;-68
2022/09/17 11:34:36;;;;;;;6.35;3.20;;;;;;;21.08;72.77;93921.41;4916040;29;20540;-70
2022/09/17 11:37:30;;;;;;;5.85;3.15;;;;;;;21.12;72.93;93935.13;4899610;29;20806;-70
2022/09/17 11:40:05;;;;;;;5.97;3.30;;;;;;;21.04;70.43;93922.16;4902700;29;20233;-69
2022/09/17 11:42:38;;;;;;;5.65;4.15;;;;;;;20.80;73.36;93957.03;4900430;29;20241;-70
2022/09/17 11:45:53;;;;;;;5.40;3.45;;;;;;;20.84;73.33;93938.66;4934249;29;20229;-71
2022/09/17 11:48:25;;;;;;;6.35;3.85;;;;;;;20.85;73.76;93958.97;4880836;29;20223;-70
2022/09/17 11:50:57;;;;;;;6.22;3.78;;;;;;;20.75;72.51;93946.28;4914264;29;20233;-66
2022/09/17 11:53:48;;;;;;;5.47;3.75;;;;;;;20.76;73.28;93925.69;4902251;29;20304;-65